createdAt,value
2023-05-23T00:01:14.651Z,18.45
2023-05-23T00:04:18.859Z,17.13
2023-05-23T00:07:20.598Z,17.80
2023-05-23T00:10:22.956Z,18.02
2023-05-23T00:13:24.736Z,15.57
2023-05-23T00:16:26.791Z,12.40
2023-05-23T00:19:28.789Z,12.07
2023-05-23T00:22:30.752Z,12.93
2023-05-23T00:25:34.109Z,12.20
2023-05-23T00:28:37.868Z,13.23
2023-05-23T00:31:39.504Z,10.65
2023-05-23T00:34:41.178Z,9.30
2023-05-23T00:37:43.825Z,11.30
2023-05-23T00:40:45.682Z,11.70
2023-05-23T00:43:47.366Z,10.93
2023-05-23T00:46:54.980Z,11.85
2023-05-23T00:49:56.829Z,11.40
2023-05-23T00:53:04.272Z,9.60
2023-05-23T00:56:06.265Z,7.57
2023-05-23T00:59:12.948Z,8.15
2023-05-23T01:02:14.739Z,15.15
2023-05-23T01:05:19.931Z,10.20
2023-05-23T01:08:24.898Z,7.53
2023-05-23T01:11:35.968Z,7.93
2023-05-23T01:14:51.565Z,9.40
2023-05-23T01:18:01.629Z,9.13
2023-05-23T01:21:08.946Z,12.00
2023-05-23T01:24:36.369Z,8.93
2023-05-23T01:27:54.174Z,9.07
2023-05-23T01:30:58.637Z,8.02
2023-05-23T01:34:01.884Z,9.35
2023-05-23T01:37:09.794Z,10.90
2023-05-23T01:40:11.993Z,10.23
2023-05-23T01:43:16.806Z,8.05
2023-05-23T01:46:24.143Z,10.35
2023-05-23T01:49:27.514Z,10.10
2023-05-23T01:52:29.348Z,9.10
2023-05-23T01:55:31.119Z,15.68
2023-05-23T01:58:32.794Z,11.00
2023-05-23T02:01:34.862Z,9.55
2023-05-23T02:04:36.563Z,9.60
2023-05-23T02:07:38.522Z,12.02
2023-05-23T02:10:40.361Z,11.35
2023-05-23T02:13:41.966Z,11.52
2023-05-23T02:16:43.578Z,9.68
2023-05-23T02:19:45.226Z,10.45
2023-05-23T02:22:46.874Z,15.10
2023-05-23T02:25:48.543Z,12.70
2023-05-23T02:28:50.188Z,14.63
2023-05-23T02:31:51.789Z,13.55
2023-05-23T02:34:57.403Z,17.88
2023-05-23T02:37:59.836Z,13.20
2023-05-23T02:41:01.486Z,14.02
2023-05-23T02:44:03.454Z,17.38
2023-05-23T02:47:05.501Z,17.35
2023-05-23T02:50:07.772Z,15.30
2023-05-23T02:53:09.665Z,26.02
2023-05-23T02:56:11.588Z,17.20
2023-05-23T02:59:13.653Z,14.25
2023-05-23T03:02:15.679Z,13.35
2023-05-23T03:05:17.453Z,10.98
2023-05-23T03:08:19.448Z,13.88
2023-05-23T03:11:22.730Z,14.05
2023-05-23T03:14:24.514Z,13.13
2023-05-23T03:17:26.403Z,11.70
2023-05-23T03:20:28.203Z,12.88
2023-05-23T03:23:30.163Z,12.60
2023-05-23T03:26:32.465Z,14.32
2023-05-23T03:29:34.207Z,13.60
2023-05-23T03:32:36.191Z,13.95
2023-05-23T03:35:38.060Z,11.68
2023-05-23T03:38:39.880Z,16.73
2023-05-23T03:41:41.601Z,13.90
2023-05-23T03:44:44.137Z,14.27
2023-05-23T03:47:45.938Z,16.15
2023-05-23T03:50:47.797Z,17.15
2023-05-23T03:53:49.527Z,19.90
2023-05-23T03:56:51.268Z,13.10
2023-05-23T03:59:53.017Z,20.45
2023-05-23T04:02:54.874Z,20.23
2023-05-23T04:05:57.861Z,18.55
2023-05-23T04:08:59.624Z,19.25
2023-05-23T04:12:01.359Z,20.55
2023-05-23T04:15:03.949Z,19.40
2023-05-23T04:18:07.452Z,22.90
2023-05-23T04:21:09.347Z,19.55
2023-05-23T04:24:11.573Z,13.68
2023-05-23T04:27:13.685Z,19.33
2023-05-23T04:30:16.827Z,19.88
2023-05-23T04:33:18.429Z,19.45
2023-05-23T04:36:19.998Z,19.30
2023-05-23T04:39:21.693Z,17.10
2023-05-23T04:42:24.305Z,19.48
2023-05-23T04:45:26.590Z,17.75
2023-05-23T04:48:28.198Z,19.73
2023-05-23T04:51:29.866Z,25.73
2023-05-23T04:54:31.525Z,17.30
2023-05-23T04:57:35.740Z,20.70
2023-05-23T05:00:37.430Z,16.88
2023-05-23T05:03:39.270Z,19.50
2023-05-23T05:06:45.191Z,16.05
2023-05-23T05:09:46.787Z,18.75
2023-05-23T05:12:49.537Z,22.27
2023-05-23T05:15:52.747Z,22.10
2023-05-23T05:18:54.563Z,22.80
2023-05-23T05:21:57.668Z,21.55
2023-05-23T05:24:59.268Z,21.30
2023-05-23T05:28:06.084Z,24.05
2023-05-23T05:31:07.948Z,21.23
2023-05-23T05:34:09.535Z,28.33
2023-05-23T05:37:14.035Z,23.27
2023-05-23T05:40:15.695Z,28.60
2023-05-23T05:43:17.328Z,28.33
2023-05-23T05:46:18.925Z,24.00
2023-05-23T05:49:20.667Z,21.70
2023-05-23T05:52:22.484Z,23.50
2023-05-23T05:55:24.161Z,25.95
2023-05-23T05:58:25.853Z,22.58
2023-05-23T06:01:27.434Z,20.50
2023-05-23T06:04:29.089Z,26.60
2023-05-23T06:07:30.711Z,25.77
2023-05-23T06:10:32.305Z,24.63
2023-05-23T06:13:33.976Z,17.40
2023-05-23T06:16:35.668Z,29.30
2023-05-23T06:19:38.585Z,19.58
2023-05-23T06:22:40.309Z,23.40
2023-05-23T06:25:42.054Z,17.13
2023-05-23T06:28:43.648Z,18.63
2023-05-23T06:31:45.413Z,22.02
2023-05-23T06:34:47.054Z,22.73
2023-05-23T06:37:48.857Z,19.40
2023-05-23T06:40:50.405Z,24.63
2023-05-23T06:43:52.032Z,21.70
2023-05-23T06:46:58.676Z,17.17
2023-05-23T06:50:00.363Z,19.80
2023-05-23T06:53:01.913Z,17.58
2023-05-23T06:56:03.566Z,19.67
2023-05-23T06:59:05.150Z,19.35
2023-05-23T07:02:06.791Z,16.88
2023-05-23T07:05:08.672Z,20.92
2023-05-23T07:08:11.165Z,21.65
2023-05-23T07:11:13.217Z,24.15
2023-05-23T07:14:15.712Z,21.38
2023-05-23T07:17:17.453Z,26.15
2023-05-23T07:20:19.028Z,21.95
2023-05-23T07:23:22.345Z,26.55
2023-05-23T07:26:24.092Z,15.98
2023-05-23T07:29:25.770Z,26.17
2023-05-23T07:32:27.456Z,23.58
2023-05-23T07:35:29.172Z,18.90
2023-05-23T07:38:30.956Z,22.05
2023-05-23T07:41:32.604Z,19.35
2023-05-23T07:44:34.181Z,21.42
2023-05-23T07:47:35.788Z,22.85
2023-05-23T07:50:37.429Z,22.65
2023-05-23T07:53:40.024Z,22.50
2023-05-23T07:56:43.371Z,30.13
2023-05-23T07:59:44.977Z,29.50
2023-05-23T08:02:46.596Z,30.15
2023-05-23T08:05:48.266Z,30.70
2023-05-23T08:08:50.983Z,21.50
2023-05-23T08:11:52.700Z,21.08
2023-05-23T08:14:54.322Z,20.38
2023-05-23T08:17:57.459Z,26.20
2023-05-23T08:20:59.205Z,23.40
2023-05-23T08:24:00.888Z,27.42
2023-05-23T08:27:02.481Z,23.38
2023-05-23T08:30:04.990Z,22.20
2023-05-23T08:33:07.115Z,22.08
2023-05-23T08:36:08.887Z,24.38
2023-05-23T08:39:11.884Z,24.60
2023-05-23T08:42:15.789Z,21.63
2023-05-23T08:45:18.365Z,25.20
2023-05-23T08:48:21.084Z,27.23
2023-05-23T08:51:25.736Z,22.65
2023-05-23T08:54:29.395Z,25.92
2023-05-23T08:57:31.050Z,24.90
2023-05-23T09:00:34.893Z,28.70
2023-05-23T09:03:37.685Z,25.52
2023-05-23T09:06:39.272Z,25.65
2023-05-23T09:09:41.631Z,33.10
2023-05-23T09:12:43.545Z,22.80
2023-05-23T09:16:00.049Z,23.73
2023-05-23T09:19:11.341Z,25.25
2023-05-23T09:22:13.261Z,21.77
2023-05-23T09:25:15.572Z,25.40
2023-05-23T09:28:17.738Z,24.67
2023-05-23T09:31:19.652Z,18.27
2023-05-23T09:34:21.244Z,22.60
2023-05-23T09:37:29.425Z,24.23
2023-05-23T09:40:32.495Z,17.45
2023-05-23T09:43:34.442Z,19.40
2023-05-23T09:46:38.274Z,19.55
2023-05-23T09:49:41.238Z,22.20
2023-05-23T09:52:42.850Z,19.38
2023-05-23T09:55:44.607Z,25.38
2023-05-23T09:58:50.063Z,27.10
2023-05-23T10:01:53.596Z,24.23
2023-05-23T10:04:56.629Z,30.90
2023-05-23T10:08:01.623Z,30.38
2023-05-23T10:11:16.586Z,24.02
2023-05-23T10:14:18.751Z,29.85
2023-05-23T10:17:30.924Z,26.05
2023-05-23T10:20:33.458Z,26.27
2023-05-23T10:23:37.207Z,22.30
2023-05-23T10:26:38.857Z,22.13
2023-05-23T10:29:40.530Z,25.10
2023-05-23T10:32:43.109Z,20.80
2023-05-23T10:36:10.676Z,17.83
2023-05-23T10:39:25.413Z,26.90
2023-05-23T10:42:36.081Z,20.33
2023-05-23T10:48:46.980Z,19.38
2023-05-23T10:51:52.032Z,22.65
2023-05-23T10:54:56.269Z,16.50
2023-05-23T10:58:31.277Z,16.20
2023-05-23T11:01:39.112Z,18.98
2023-05-23T11:04:41.288Z,16.17
2023-05-23T11:07:43.008Z,21.17
2023-05-23T11:10:53.623Z,19.15
2023-05-23T11:16:58.997Z,17.85
2023-05-23T11:20:07.693Z,23.77
2023-05-23T11:23:09.479Z,16.92
2023-05-23T11:26:30.975Z,15.27
2023-05-23T11:29:32.672Z,18.48
2023-05-23T11:32:34.976Z,15.77
2023-05-23T11:35:37.293Z,14.15
2023-05-23T11:38:38.952Z,12.50
2023-05-23T11:41:42.827Z,13.70
2023-05-23T11:44:45.332Z,12.02
2023-05-23T11:47:47.257Z,14.98
2023-05-23T11:50:54.352Z,15.82
2023-05-23T11:54:04.731Z,16.00
2023-05-23T11:57:06.352Z,17.27
2023-05-23T12:00:08.819Z,16.95
2023-05-23T12:03:12.018Z,14.82
2023-05-23T12:06:19.040Z,25.15
2023-05-23T12:09:20.677Z,11.68
2023-05-23T12:12:22.458Z,20.15
2023-05-23T12:15:28.139Z,18.02
2023-05-23T12:18:32.290Z,14.05
2023-05-23T12:21:48.021Z,17.23
2023-05-23T12:24:52.756Z,22.08
2023-05-23T12:27:56.173Z,16.45
2023-05-23T12:30:57.787Z,22.30
2023-05-23T12:33:59.586Z,15.02
2023-05-23T12:40:16.860Z,11.52
2023-05-23T12:43:18.742Z,19.23
2023-05-23T12:46:25.317Z,18.40
2023-05-23T12:49:27.018Z,17.40
2023-05-23T12:52:28.630Z,19.40
2023-05-23T12:55:30.300Z,22.00
2023-05-23T12:58:32.822Z,18.38
2023-05-23T13:01:34.982Z,19.15
2023-05-23T13:04:36.720Z,17.10
2023-05-23T13:07:38.332Z,19.65
2023-05-23T13:10:40.200Z,20.08
2023-05-23T13:13:41.912Z,19.67
2023-05-23T13:16:44.994Z,15.95
2023-05-23T13:19:46.807Z,18.92
2023-05-23T13:22:49.136Z,21.23
2023-05-23T13:25:51.165Z,17.15
2023-05-23T13:28:52.884Z,17.48
2023-05-23T13:31:54.626Z,17.42
2023-05-23T13:34:56.229Z,18.25
2023-05-23T13:37:57.886Z,18.63
2023-05-23T13:40:59.526Z,20.10
2023-05-23T13:44:01.138Z,15.38
2023-05-23T13:47:15.488Z,15.52
2023-05-23T13:50:18.047Z,17.83
2023-05-23T13:53:21.410Z,17.60
2023-05-23T13:56:24.382Z,15.02
2023-05-23T13:59:26.718Z,19.60
2023-05-23T14:02:28.539Z,18.42
2023-05-23T14:05:30.131Z,19.83
2023-05-23T14:08:31.751Z,26.23
2023-05-23T14:11:33.444Z,21.00
2023-05-23T14:14:35.025Z,22.95
2023-05-23T14:17:36.750Z,26.17
2023-05-23T14:20:38.521Z,14.98
2023-05-23T14:23:40.139Z,15.82
2023-05-23T14:26:41.921Z,17.17
2023-05-23T14:29:46.528Z,20.02
2023-05-23T14:32:48.326Z,17.98
2023-05-23T14:35:51.534Z,17.92
2023-05-23T14:38:53.117Z,18.58
2023-05-23T14:41:55.332Z,13.27
2023-05-23T14:44:56.991Z,17.00
2023-05-23T14:47:58.730Z,16.52
2023-05-23T14:51:01.812Z,21.52
2023-05-23T14:54:03.533Z,18.40
2023-05-23T14:57:05.324Z,17.02
2023-05-23T15:00:09.691Z,18.13
2023-05-23T15:03:11.453Z,17.17
2023-05-23T15:06:13.175Z,17.05
2023-05-23T15:09:14.943Z,14.35
2023-05-23T15:12:16.561Z,13.23
2023-05-23T15:15:22.841Z,20.45
2023-05-23T15:18:39.011Z,20.73
2023-05-23T15:21:50.387Z,17.10
2023-05-23T15:24:52.950Z,15.85
2023-05-23T15:27:54.584Z,17.17
2023-05-23T15:30:57.085Z,20.60
2023-05-23T15:33:58.683Z,18.50
2023-05-23T15:37:00.574Z,19.02
2023-05-23T15:40:02.539Z,18.85
2023-05-23T15:43:04.324Z,15.32
2023-05-23T15:46:06.188Z,17.92
2023-05-23T15:49:21.604Z,27.95
2023-05-23T15:52:26.463Z,13.77
2023-05-23T15:55:28.173Z,19.90
2023-05-23T15:58:29.831Z,24.00
2023-05-23T16:01:32.948Z,17.25
2023-05-23T16:04:36.138Z,19.30
2023-05-23T16:07:37.761Z,16.55
2023-05-23T16:10:39.461Z,13.90
2023-05-23T16:13:41.090Z,20.45
2023-05-23T16:16:42.922Z,13.35
2023-05-23T16:19:44.659Z,22.02
2023-05-23T16:22:46.372Z,17.63
2023-05-23T16:25:48.356Z,15.27
2023-05-23T16:28:50.684Z,12.80
2023-05-23T16:31:52.344Z,18.17
2023-05-23T16:34:54.775Z,14.55
2023-05-23T16:37:56.470Z,18.38
2023-05-23T16:40:58.152Z,15.52
2023-05-23T16:43:59.782Z,16.25
2023-05-23T16:47:01.714Z,15.57
2023-05-23T16:50:04.911Z,16.33
2023-05-23T16:53:06.546Z,18.00
2023-05-23T16:56:08.128Z,15.60
2023-05-23T16:59:09.748Z,16.85
2023-05-23T17:02:14.626Z,19.25
2023-05-23T17:05:16.275Z,20.50
2023-05-23T17:08:17.875Z,16.77
2023-05-23T17:11:19.589Z,21.35
2023-05-23T17:14:21.505Z,20.48
2023-05-23T17:17:23.160Z,20.42
2023-05-23T17:20:26.641Z,19.58
2023-05-23T17:23:28.250Z,15.35
2023-05-23T17:26:29.876Z,17.48
2023-05-23T17:29:31.660Z,18.67
2023-05-23T17:32:34.244Z,19.52
2023-05-23T17:35:35.939Z,13.90
2023-05-23T17:38:38.551Z,15.25
2023-05-23T17:41:40.190Z,15.27
2023-05-23T17:44:42.007Z,15.95
2023-05-23T17:47:43.666Z,16.13
2023-05-23T17:50:45.775Z,24.17
2023-05-23T17:53:51.433Z,18.88
2023-05-23T17:56:53.841Z,14.43
2023-05-23T17:59:55.479Z,11.77
2023-05-23T18:02:57.203Z,17.20
2023-05-23T18:05:58.861Z,20.48
2023-05-23T18:09:00.479Z,18.00
2023-05-23T18:12:02.234Z,20.70
2023-05-23T18:15:04.179Z,12.77
2023-05-23T18:18:06.698Z,14.25
2023-05-23T18:21:08.649Z,14.00
2023-05-23T18:24:11.675Z,18.88
2023-05-23T18:27:13.342Z,16.20
2023-05-23T18:30:15.085Z,15.68
2023-05-23T18:33:16.841Z,14.63
2023-05-23T18:36:18.636Z,15.73
2023-05-23T18:39:20.260Z,14.00
2023-05-23T18:42:21.856Z,16.90
2023-05-23T18:45:23.451Z,19.08
2023-05-23T18:48:25.044Z,20.60
2023-05-23T18:51:29.352Z,15.15
2023-05-23T18:54:30.929Z,17.75
2023-05-23T18:57:33.221Z,13.95
2023-05-23T19:00:34.866Z,12.88
2023-05-23T19:03:37.153Z,19.85
2023-05-23T19:06:38.923Z,18.58
2023-05-23T19:09:40.616Z,16.98
2023-05-23T19:12:42.228Z,14.82
2023-05-23T19:15:45.756Z,20.27
2023-05-23T19:18:48.302Z,19.98
2023-05-23T19:21:50.969Z,21.15
2023-05-23T19:24:52.585Z,18.75
2023-05-23T19:27:54.197Z,14.32
2023-05-23T19:30:55.858Z,23.10
2023-05-23T19:33:57.460Z,15.43
2023-05-23T19:37:00.480Z,17.65
2023-05-23T19:40:02.136Z,13.52
2023-05-23T19:43:03.766Z,14.80
2023-05-23T19:46:05.865Z,14.23
2023-05-23T19:49:08.864Z,17.05
2023-05-23T19:52:10.470Z,11.77
2023-05-23T19:55:12.186Z,15.10
2023-05-23T19:58:13.908Z,16.48
2023-05-23T20:01:15.649Z,13.48
2023-05-23T20:04:17.278Z,20.92
2023-05-23T20:07:18.977Z,15.80
2023-05-23T20:10:20.752Z,19.13
2023-05-23T20:13:22.339Z,19.30
2023-05-23T20:16:24.011Z,17.80
2023-05-23T20:19:25.823Z,23.45
2023-05-23T20:22:27.733Z,13.55
2023-05-23T20:25:29.355Z,17.17
2023-05-23T20:28:31.074Z,18.35
2023-05-23T20:31:33.142Z,20.45
2023-05-23T20:34:34.807Z,19.30
2023-05-23T20:37:36.390Z,19.35
2023-05-23T20:40:38.158Z,16.25
2023-05-23T20:43:40.244Z,15.00
2023-05-23T20:46:41.903Z,17.05
2023-05-23T20:49:44.216Z,19.05
2023-05-23T20:52:45.814Z,18.83
2023-05-23T20:55:50.588Z,24.23
2023-05-23T20:58:52.181Z,13.88
2023-05-23T21:01:53.859Z,20.60
2023-05-23T21:04:55.811Z,21.17
2023-05-23T21:07:57.381Z,23.83
2023-05-23T21:10:59.047Z,20.48
2023-05-23T21:14:00.870Z,17.58
2023-05-23T21:17:02.590Z,15.95
2023-05-23T21:20:05.460Z,15.57
2023-05-23T21:23:07.035Z,21.48
2023-05-23T21:26:08.684Z,23.90
2023-05-23T21:29:10.466Z,15.57
2023-05-23T21:32:12.205Z,20.08
2023-05-23T21:35:13.784Z,17.60
2023-05-23T21:38:15.458Z,13.85
2023-05-23T21:41:17.105Z,21.02
2023-05-23T21:44:26.169Z,23.30
2023-05-23T21:47:27.884Z,18.70
2023-05-23T21:50:29.619Z,20.23
2023-05-23T21:53:31.414Z,22.75
2023-05-23T21:56:33.038Z,18.77
2023-05-23T21:59:34.604Z,14.40
2023-05-23T22:02:37.229Z,17.00
2023-05-23T22:05:38.892Z,18.67
2023-05-23T22:08:40.494Z,23.23
2023-05-23T22:11:42.432Z,20.92
2023-05-23T22:14:44.297Z,18.08
2023-05-23T22:17:46.663Z,19.92
2023-05-23T22:20:49.188Z,21.27
2023-05-23T22:23:51.949Z,16.92
2023-05-23T22:26:53.554Z,22.38
2023-05-23T22:29:55.150Z,19.67
2023-05-23T22:32:57.630Z,20.27
2023-05-23T22:35:59.261Z,22.90
2023-05-23T22:39:05.282Z,22.58
2023-05-23T22:42:07.018Z,19.40
2023-05-23T22:45:09.635Z,15.90
2023-05-23T22:48:11.732Z,20.88
2023-05-23T22:51:14.625Z,21.08
2023-05-23T22:54:18.510Z,25.52
2023-05-23T22:57:26.348Z,17.77
2023-05-23T23:00:30.418Z,20.83
2023-05-23T23:03:32.112Z,16.67
2023-05-23T23:06:33.959Z,25.52
2023-05-23T23:09:35.604Z,18.45
2023-05-23T23:12:40.309Z,17.15
2023-05-23T23:15:43.060Z,18.05
2023-05-23T23:18:46.969Z,21.20
2023-05-23T23:21:48.867Z,16.85
2023-05-23T23:24:52.764Z,25.42
2023-05-23T23:27:54.348Z,22.98
2023-05-23T23:30:56.052Z,23.73
2023-05-23T23:33:58.937Z,23.15
2023-05-23T23:37:00.631Z,20.55
2023-05-23T23:40:02.551Z,18.42
2023-05-23T23:43:04.193Z,23.85
2023-05-23T23:46:05.895Z,18.60
2023-05-23T23:49:07.578Z,13.68
2023-05-23T23:52:12.304Z,23.88
2023-05-23T23:55:13.993Z,21.55
2023-05-23T23:58:15.943Z,19.27
